Time;durP1;ratioP1;P1;durP2;ratioP2;P2;SDS_P1;SDS_P2;PMS_P1;PMS_P2;Temp;Humidity;BMP_temperature;BMP_pressure;BME280_temperature;BME280_humidity;BME280_pressure;Samples;Min_cycle;Max_cycle;Signal;HPM_P1;HPM_P2
2022/10/04 00:01:19;;;;;;;;;;;20.50;64.20;;;;;;5021759;28;1035;-70
2022/10/04 00:04:03;;;;;;;;;;;20.50;64.30;;;;;;5018869;28;887;-70
2022/10/04 00:06:28;;;;;;;;;;;20.50;64.30;;;;;;5021058;28;1435;-70
2022/10/04 00:08:55;;;;;;;;;;;20.50;64.40;;;;;;5018242;28;1962;-70
2022/10/04 00:11:24;;;;;;;;;;;20.50;64.40;;;;;;5018183;28;801;-69
2022/10/04 00:13:50;;;;;;;;;;;20.40;64.40;;;;;;5018188;28;1026;-70
2022/10/04 00:16:24;;;;;;;;;;;20.50;64.50;;;;;;5018618;28;1225;-68
2022/10/04 00:18:58;;;;;;;;;;;20.50;64.60;;;;;;5016799;28;851;-70
2022/10/04 00:21:24;;;;;;;;;;;20.50;64.60;;;;;;5017557;28;834;-69
2022/10/04 00:23:49;;;;;;;;;;;20.50;64.70;;;;;;5021974;28;1480;-70
2022/10/04 00:26:34;;;;;;;;;;;20.50;64.80;;;;;;5019182;28;1270;-69
2022/10/04 00:29:20;;;;;;;;;;;20.50;64.90;;;;;;5019943;28;1902;-70
2022/10/04 00:32:04;;;;;;;;;;;20.50;64.90;;;;;;5020183;28;1519;-69
2022/10/04 00:34:29;;;;;;;;;;;20.50;65.00;;;;;;5016301;28;1596;-69
2022/10/04 00:36:55;;;;;;;;;;;20.50;65.00;;;;;;5017200;28;1391;-68
2022/10/04 00:39:25;;;;;;;;;;;20.50;65.00;;;;;;5017726;28;875;-70
2022/10/04 00:41:56;;;;;;;;;;;20.50;65.00;;;;;;5020136;28;828;-70
2022/10/04 00:44:40;;;;;;;;;;;20.50;65.10;;;;;;5020287;28;844;-70
2022/10/04 00:47:24;;;;;;;;;;;20.50;65.10;;;;;;5016848;28;1260;-70
2022/10/04 00:49:51;;;;;;;;;;;20.40;65.10;;;;;;5018472;28;1898;-69
2022/10/04 00:52:26;;;;;;;;;;;20.50;65.20;;;;;;5016730;28;1884;-69
2022/10/04 00:54:56;;;;;;;;;;;20.40;65.20;;;;;;5018194;28;1370;-70
2022/10/04 00:57:23;;;;;;;;;;;20.40;65.30;;;;;;5017799;28;1930;-70
2022/10/04 00:59:51;;;;;;;;;;;20.40;65.30;;;;;;5022151;28;1324;-69
2022/10/04 01:02:18;;;;;;;;;;;20.40;65.40;;;;;;5017435;28;2114;-70
2022/10/04 01:04:47;;;;;;;;;;;20.40;65.40;;;;;;5018096;28;1764;-70
2022/10/04 01:07:13;;;;;;;;;;;20.40;65.40;;;;;;5018735;28;1929;-69
2022/10/04 01:09:44;;;;;;;;;;;20.50;66.00;;;;;;5019287;28;1965;-69
2022/10/04 01:12:11;;;;;;;;;;;20.50;66.40;;;;;;5020511;28;1797;-70
2022/10/04 01:14:43;;;;;;;;;;;20.50;66.40;;;;;;5019129;28;1428;-69
2022/10/04 01:17:09;;;;;;;;;;;20.50;66.40;;;;;;5017422;28;1301;-70
2022/10/04 01:19:34;;;;;;;;;;;20.60;67.10;;;;;;5018522;28;1343;-70
2022/10/04 01:22:10;;;;;;;;;;;20.60;66.40;;;;;;5019348;28;1343;-71
2022/10/04 01:24:42;;;;;;;;;;;20.60;66.40;;;;;;5023470;28;1316;-71
2022/10/04 01:27:34;;;;;;;;;;;20.60;66.40;;;;;;5019409;28;1272;-70
2022/10/04 01:29:59;;;;;;;;;;;20.60;66.40;;;;;;5022602;28;1960;-70
2022/10/04 01:32:25;;;;;;;;;;;20.70;66.50;;;;;;5022438;28;1287;-71
2022/10/04 01:34:50;;;;;;;;;;;20.70;66.50;;;;;;5020498;28;1339;-70
2022/10/04 01:37:15;;;;;;;;;;;20.70;66.60;;;;;;5020419;28;1281;-70
2022/10/04 01:39:41;;;;;;;;;;;20.70;66.70;;;;;;5024279;28;1775;-70
2022/10/04 01:42:14;;;;;;;;;;;20.70;66.90;;;;;;5016666;28;889;-70
2022/10/04 01:44:43;;;;;;;;;;;20.70;66.70;;;;;;5020232;28;1042;-70
2022/10/04 01:47:12;;;;;;;;;;;20.70;66.70;;;;;;5024504;28;1312;-70
2022/10/04 01:49:37;;;;;;;;;;;20.70;66.80;;;;;;5022451;28;1911;-70
2022/10/04 01:52:07;;;;;;;;;;;20.70;66.90;;;;;;5021078;28;1256;-70
2022/10/04 01:54:37;;;;;;;;;;;20.70;67.00;;;;;;5023872;28;970;-71
2022/10/04 01:57:03;;;;;;;;;;;20.70;67.00;;;;;;5020057;28;1281;-70
2022/10/04 01:59:47;;;;;;;;;;;20.60;67.00;;;;;;5021593;28;911;-70
2022/10/04 02:02:42;;;;;;;;;;;20.60;67.00;;;;;;5023827;28;981;-70
2022/10/04 02:05:09;;;;;;;;;;;20.60;67.10;;;;;;5019326;28;1534;-71
2022/10/04 02:07:35;;;;;;;;;;;20.60;67.10;;;;;;5020561;28;1402;-71
2022/10/04 02:10:02;;;;;;;;;;;20.60;67.30;;;;;;5019197;28;1976;-70
2022/10/04 02:12:30;;;;;;;;;;;20.60;67.60;;;;;;5019838;28;904;-71
2022/10/04 02:14:55;;;;;;;;;;;20.70;67.70;;;;;;5022056;28;836;-71
2022/10/04 02:17:22;;;;;;;;;;;20.70;67.70;;;;;;5021121;28;1452;-71
2022/10/04 02:19:47;;;;;;;;;;;20.70;67.70;;;;;;5021414;28;856;-71
2022/10/04 02:22:13;;;;;;;;;;;20.70;67.70;;;;;;5024623;28;906;-71
2022/10/04 02:24:43;;;;;;;;;;;20.70;68.50;;;;;;5022523;28;865;-71
2022/10/04 02:27:08;;;;;;;;;;;20.70;67.80;;;;;;5019806;28;1329;-71
2022/10/04 02:29:33;;;;;;;;;;;20.70;67.80;;;;;;5022381;28;2025;-70
2022/10/04 02:34:44;;;;;;;;;;;20.80;68.10;;;;;;5021106;28;1534;-71
2022/10/04 02:37:11;;;;;;;;;;;20.80;67.90;;;;;;5022306;28;1346;-70
2022/10/04 02:39:39;;;;;;;;;;;20.80;68.00;;;;;;5021404;28;860;-71
2022/10/04 02:42:08;;;;;;;;;;;20.80;68.00;;;;;;5017526;28;896;-70
2022/10/04 02:44:44;;;;;;;;;;;20.80;67.80;;;;;;5020429;28;859;-70
2022/10/04 02:47:19;;;;;;;;;;;20.80;67.70;;;;;;5024557;28;1374;-70
2022/10/04 02:49:48;;;;;;;;;;;20.70;67.70;;;;;;5018397;28;1968;-70
2022/10/04 02:52:15;;;;;;;;;;;20.70;67.80;;;;;;5018255;28;814;-70
2022/10/04 02:54:44;;;;;;;;;;;20.70;67.80;;;;;;5020882;28;1313;-70
2022/10/04 02:57:18;;;;;;;;;;;20.70;67.90;;;;;;5021887;28;1398;-70
2022/10/04 02:59:43;;;;;;;;;;;20.70;68.00;;;;;;5024100;28;860;-70
2022/10/04 03:02:19;;;;;;;;;;;20.70;68.10;;;;;;5020353;28;990;-69
2022/10/04 03:04:45;;;;;;;;;;;20.70;68.10;;;;;;5023241;28;1366;-70
2022/10/04 03:07:10;;;;;;;;;;;20.70;68.10;;;;;;5019122;28;1249;-70
2022/10/04 03:09:35;;;;;;;;;;;20.70;68.20;;;;;;5019855;28;1926;-70
2022/10/04 03:12:02;;;;;;;;;;;20.70;68.30;;;;;;5018328;28;1007;-70
2022/10/04 03:14:27;;;;;;;;;;;20.70;68.50;;;;;;5024087;28;864;-69
2022/10/04 03:16:53;;;;;;;;;;;20.70;68.70;;;;;;5021889;28;1275;-70
2022/10/04 03:19:22;;;;;;;;;;;20.70;68.60;;;;;;5019271;28;1042;-70
2022/10/04 03:21:49;;;;;;;;;;;20.70;68.60;;;;;;5021253;28;851;-70
2022/10/04 03:24:19;;;;;;;;;;;20.70;68.80;;;;;;5020501;28;892;-70
2022/10/04 03:26:49;;;;;;;;;;;20.80;69.10;;;;;;5020713;28;1286;-69
2022/10/04 03:29:14;;;;;;;;;;;20.80;69.00;;;;;;5020694;28;1894;-70
2022/10/04 03:31:41;;;;;;;;;;;20.80;69.00;;;;;;5021338;28;1378;-70
2022/10/04 03:34:11;;;;;;;;;;;20.80;69.00;;;;;;5019795;28;1070;-69
2022/10/04 03:36:36;;;;;;;;;;;20.80;69.00;;;;;;5020657;28;1324;-70
2022/10/04 03:39:02;;;;;;;;;;;20.80;69.10;;;;;;5016728;28;1612;-70
2022/10/04 03:41:27;;;;;;;;;;;20.80;69.10;;;;;;5021174;28;1366;-70
2022/10/04 03:43:53;;;;;;;;;;;20.80;69.70;;;;;;5020369;28;844;-69
2022/10/04 03:46:18;;;;;;;;;;;20.80;69.80;;;;;;5023218;28;1260;-70
2022/10/04 03:48:51;;;;;;;;;;;20.80;69.90;;;;;;5018431;28;808;-70
2022/10/04 03:51:17;;;;;;;;;;;20.80;69.90;;;;;;5016202;28;1902;-70
2022/10/04 03:53:43;;;;;;;;;;;20.80;70.70;;;;;;5014768;28;2515;-70
2022/10/04 03:56:14;;;;;;;;;;;20.80;69.80;;;;;;5017647;28;1372;-70
2022/10/04 03:58:39;;;;;;;;;;;20.80;69.80;;;;;;5021755;28;1446;-70
2022/10/04 04:01:05;;;;;;;;;;;20.80;69.90;;;;;;5018572;28;851;-70
2022/10/04 04:03:32;;;;;;;;;;;20.80;70.20;;;;;;5018113;28;914;-70
2022/10/04 04:05:58;;;;;;;;;;;20.80;70.40;;;;;;5018308;28;1261;-70
2022/10/04 04:08:33;;;;;;;;;;;20.80;70.40;;;;;;5020508;28;1264;-71
2022/10/04 04:10:59;;;;;;;;;;;20.80;70.70;;;;;;5007247;28;2004;-70
2022/10/04 04:13:26;;;;;;;;;;;20.80;70.60;;;;;;5019874;28;880;-69
2022/10/04 04:15:53;;;;;;;;;;;20.80;70.80;;;;;;5020664;28;1265;-70
2022/10/04 04:18:22;;;;;;;;;;;20.80;70.80;;;;;;5019361;28;1220;-69
2022/10/04 04:20:48;;;;;;;;;;;20.80;71.20;;;;;;5015643;28;1039;-70
2022/10/04 04:23:13;;;;;;;;;;;20.80;71.10;;;;;;5005495;28;1224;-69
2022/10/04 04:25:40;;;;;;;;;;;20.80;71.20;;;;;;5015673;28;845;-69
2022/10/04 04:28:18;;;;;;;;;;;20.80;71.30;;;;;;5018609;28;1406;-70
2022/10/04 04:30:45;;;;;;;;;;;20.80;71.20;;;;;;5020020;28;1894;-70
2022/10/04 04:33:12;;;;;;;;;;;20.80;71.80;;;;;;5020097;28;1366;-70
2022/10/04 04:35:38;;;;;;;;;;;20.80;72.60;;;;;;5017620;28;1604;-70
2022/10/04 04:38:12;;;;;;;;;;;20.80;71.90;;;;;;5016352;28;1300;-70
2022/10/04 04:40:37;;;;;;;;;;;20.80;72.10;;;;;;5017285;28;995;-71
2022/10/04 04:43:03;;;;;;;;;;;20.80;71.90;;;;;;5020591;28;839;-70
2022/10/04 04:45:29;;;;;;;;;;;20.80;71.80;;;;;;5018536;28;1202;-70
2022/10/04 04:47:56;;;;;;;;;;;20.80;71.80;;;;;;5018910;28;1379;-70
2022/10/04 04:50:22;;;;;;;;;;;20.80;71.60;;;;;;5016510;28;1910;-69
2022/10/04 04:52:49;;;;;;;;;;;20.80;71.50;;;;;;5017462;28;840;-70
2022/10/04 04:55:16;;;;;;;;;;;20.80;71.80;;;;;;5020342;28;946;-70
2022/10/04 04:57:43;;;;;;;;;;;20.80;71.80;;;;;;5014270;28;2032;-68
2022/10/04 05:00:13;;;;;;;;;;;20.90;71.90;;;;;;5016862;28;1352;-68
2022/10/04 05:02:39;;;;;;;;;;;20.80;71.80;;;;;;5019527;28;1254;-67
2022/10/04 05:05:16;;;;;;;;;;;20.90;71.60;;;;;;5006530;28;9788;-68
2022/10/04 05:07:42;;;;;;;;;;;20.90;71.80;;;;;;5027309;28;1362;-68
2022/10/04 05:10:20;;;;;;;;;;;20.90;72.00;;;;;;5024213;28;1906;-68
2022/10/04 05:12:46;;;;;;;;;;;21.00;72.20;;;;;;5017979;28;1545;-68
2022/10/04 05:15:11;;;;;;;;;;;21.00;72.30;;;;;;5022427;28;899;-69
2022/10/04 05:17:36;;;;;;;;;;;21.10;72.70;;;;;;5022147;28;1339;-70
2022/10/04 05:20:02;;;;;;;;;;;21.10;72.90;;;;;;5020861;28;961;-69
2022/10/04 05:22:27;;;;;;;;;;;21.20;73.00;;;;;;5006573;28;1208;-69
2022/10/04 05:24:55;;;;;;;;;;;21.30;73.20;;;;;;5021115;28;962;-69
2022/10/04 05:27:24;;;;;;;;;;;21.30;72.80;;;;;;5022104;28;1482;-69
2022/10/04 05:30:07;;;;;;;;;;;21.40;72.50;;;;;;5021716;28;1896;-69
2022/10/04 05:32:37;;;;;;;;;;;21.50;72.20;;;;;;5017782;28;1383;-69
2022/10/04 05:35:12;;;;;;;;;;;21.60;71.90;;;;;;5018006;28;883;-68
2022/10/04 05:37:41;;;;;;;;;;;21.70;71.70;;;;;;5019915;28;1376;-70
2022/10/04 05:40:19;;;;;;;;;;;21.70;71.40;;;;;;5022693;28;833;-69
2022/10/04 05:42:45;;;;;;;;;;;21.80;71.60;;;;;;5018749;28;839;-69
2022/10/04 05:45:12;;;;;;;;;;;21.90;71.50;;;;;;5020362;28;847;-69
2022/10/04 05:47:38;;;;;;;;;;;22.00;71.20;;;;;;5021786;28;2094;-68
2022/10/04 05:50:03;;;;;;;;;;;22.00;71.00;;;;;;5024796;28;1899;-69
2022/10/04 05:52:32;;;;;;;;;;;22.10;71.00;;;;;;5023825;28;1591;-66
2022/10/04 05:55:07;;;;;;;;;;;22.20;70.90;;;;;;5008591;28;1377;-66
2022/10/04 05:57:37;;;;;;;;;;;22.20;70.60;;;;;;5021341;28;1268;-66
2022/10/04 06:00:08;;;;;;;;;;;22.30;70.50;;;;;;5020915;28;1162;-68
2022/10/04 06:02:36;;;;;;;;;;;22.30;70.10;;;;;;5021982;28;1327;-68
2022/10/04 06:05:08;;;;;;;;;;;22.40;70.10;;;;;;4985388;28;1057715;-68
2022/10/04 06:07:36;;;;;;;;;;;22.40;69.80;;;;;;5020811;28;1317;-70
2022/10/04 06:10:06;;;;;;;;;;;22.40;69.50;;;;;;5018685;28;1906;-68
2022/10/04 06:13:01;;;;;;;;;;;22.50;69.40;;;;;;5022649;28;963;-69
2022/10/04 06:15:38;;;;;;;;;;;22.50;69.20;;;;;;4967576;28;1129;-68
2022/10/04 06:18:19;;;;;;;;;;;22.50;69.00;;;;;;5000927;28;5993;-68
2022/10/04 06:20:51;;;;;;;;;;;22.50;68.80;;;;;;5021479;28;1215;-69
2022/10/04 06:23:17;;;;;;;;;;;22.60;68.60;;;;;;5021869;28;1201;-70
2022/10/04 06:25:46;;;;;;;;;;;22.60;68.50;;;;;;5024865;28;872;-70
2022/10/04 06:28:16;;;;;;;;;;;22.60;68.30;;;;;;5020099;28;1332;-70
2022/10/04 06:30:46;;;;;;;;;;;22.60;68.20;;;;;;5019889;28;1969;-70
2022/10/04 06:33:21;;;;;;;;;;;22.70;68.10;;;;;;5024490;28;1525;-69
2022/10/04 06:35:58;;;;;;;;;;;22.70;68.10;;;;;;5018840;28;1732;-69
2022/10/04 06:38:39;;;;;;;;;;;22.70;68.00;;;;;;5024911;28;1506;-69
2022/10/04 06:41:07;;;;;;;;;;;22.70;67.90;;;;;;5019195;28;816;-69
2022/10/04 06:43:45;;;;;;;;;;;22.80;67.90;;;;;;5018672;28;870;-71
2022/10/04 06:46:13;;;;;;;;;;;22.80;67.90;;;;;;5019094;28;1363;-70
2022/10/04 06:48:55;;;;;;;;;;;22.80;67.80;;;;;;5018999;28;1034;-70
2022/10/04 06:51:39;;;;;;;;;;;22.80;67.80;;;;;;5018481;28;2295;-70
2022/10/04 06:54:10;;;;;;;;;;;22.80;67.80;;;;;;5021120;28;894;-70
2022/10/04 06:56:52;;;;;;;;;;;22.80;67.80;;;;;;5020491;28;1336;-70
2022/10/04 06:59:23;;;;;;;;;;;22.90;67.90;;;;;;5017209;28;865;-71
2022/10/04 07:01:49;;;;;;;;;;;22.90;67.90;;;;;;5020755;28;853;-71
2022/10/04 07:04:35;;;;;;;;;;;22.90;68.00;;;;;;5022546;28;1037;-71
2022/10/04 07:10:10;;;;;;;;;;;22.90;68.70;;;;;;5021542;28;1961;-70
2022/10/04 07:12:37;;;;;;;;;;;22.90;68.70;;;;;;5021950;28;924;-70
2022/10/04 07:15:03;;;;;;;;;;;23.00;68.70;;;;;;5017152;28;1062;-69
2022/10/04 07:17:29;;;;;;;;;;;23.00;68.70;;;;;;5021546;28;1251;-69
2022/10/04 07:19:54;;;;;;;;;;;23.00;68.90;;;;;;5018761;28;959;-69
2022/10/04 07:22:29;;;;;;;;;;;23.00;69.00;;;;;;5021557;28;1071;-70
2022/10/04 07:24:55;;;;;;;;;;;23.00;68.90;;;;;;5024097;28;931;-70
2022/10/04 07:27:23;;;;;;;;;;;23.00;68.80;;;;;;5017358;28;1331;-69
2022/10/04 07:29:52;;;;;;;;;;;23.00;68.70;;;;;;5014493;28;1898;-70
2022/10/04 07:32:27;;;;;;;;;;;23.00;68.90;;;;;;5019581;28;1433;-70
2022/10/04 07:35:25;;;;;;;;;;;23.00;68.70;;;;;;5021218;28;863;-70
2022/10/04 07:37:52;;;;;;;;;;;23.00;68.50;;;;;;4990924;28;1264;-70
2022/10/04 07:40:20;;;;;;;;;;;23.00;68.50;;;;;;5018472;28;880;-71
2022/10/04 07:42:47;;;;;;;;;;;23.00;68.40;;;;;;5019844;28;890;-70
2022/10/04 07:45:17;;;;;;;;;;;23.00;68.40;;;;;;5018822;28;887;-70
2022/10/04 07:47:43;;;;;;;;;;;23.00;68.30;;;;;;5021275;28;1352;-70
2022/10/04 07:50:27;;;;;;;;;;;23.10;68.40;;;;;;5019101;28;1907;-70
2022/10/04 07:52:56;;;;;;;;;;;23.10;68.30;;;;;;5018496;28;877;-70
2022/10/04 07:55:36;;;;;;;;;;;23.10;68.30;;;;;;5023835;28;943;-70
2022/10/04 07:58:17;;;;;;;;;;;23.10;68.20;;;;;;5020793;28;1245;-71
2022/10/04 08:00:47;;;;;;;;;;;23.10;68.50;;;;;;5016756;28;852;-71
2022/10/04 08:03:20;;;;;;;;;;;23.10;68.40;;;;;;5015101;28;941;-71
2022/10/04 08:05:51;;;;;;;;;;;23.10;68.40;;;;;;5001824;28;2588;-70
2022/10/04 08:08:16;;;;;;;;;;;23.00;68.40;;;;;;5018400;28;907;-70
2022/10/04 08:10:49;;;;;;;;;;;23.00;68.90;;;;;;5018375;28;1969;-70
2022/10/04 08:13:24;;;;;;;;;;;23.00;69.10;;;;;;5019193;28;1090;-70
2022/10/04 08:15:49;;;;;;;;;;;23.00;69.10;;;;;;5019971;28;1386;-70
2022/10/04 08:18:15;;;;;;;;;;;23.00;69.10;;;;;;5020834;28;1078;-70
2022/10/04 08:20:43;;;;;;;;;;;23.00;69.00;;;;;;5014766;28;1018;-71
2022/10/04 08:23:08;;;;;;;;;;;23.00;69.10;;;;;;5017821;28;1621;-71
2022/10/04 08:25:37;;;;;;;;;;;23.00;69.80;;;;;;5018438;28;990;-70
2022/10/04 08:31:08;;;;;;;;;;;22.90;69.30;;;;;;5018363;28;1902;-70
2022/10/04 08:33:42;;;;;;;;;;;22.80;69.50;;;;;;5018361;28;1314;-70
2022/10/04 08:36:11;;;;;;;;;;;22.80;69.70;;;;;;5018411;28;1367;-71
2022/10/04 08:39:08;;;;;;;;;;;22.80;70.20;;;;;;5019243;28;823;-70
2022/10/04 08:41:56;;;;;;;;;;;22.80;70.30;;;;;;4980241;28;1165;-69
2022/10/04 08:44:22;;;;;;;;;;;22.80;70.40;;;;;;5019697;28;872;-69
2022/10/04 08:47:06;;;;;;;;;;;22.80;70.40;;;;;;5017933;28;1252;-70
2022/10/04 08:49:51;;;;;;;;;;;22.70;70.60;;;;;;5019448;28;1978;-70
2022/10/04 08:52:36;;;;;;;;;;;22.70;70.70;;;;;;5015805;28;891;-70
2022/10/04 08:55:20;;;;;;;;;;;22.70;70.70;;;;;;5016632;28;876;-70
2022/10/04 08:57:50;;;;;;;;;;;22.70;70.60;;;;;;5017237;28;1347;-70
2022/10/04 09:00:34;;;;;;;;;;;22.70;70.80;;;;;;5021648;28;946;-70
2022/10/04 09:03:05;;;;;;;;;;;22.70;71.00;;;;;;5016342;28;818;-70
2022/10/04 09:05:31;;;;;;;;;;;22.70;70.80;;;;;;5016738;28;970;-70
2022/10/04 09:08:15;;;;;;;;;;;22.60;70.80;;;;;;5016518;28;1249;-71
2022/10/04 09:10:43;;;;;;;;;;;22.60;71.00;;;;;;5017311;28;1997;-71
2022/10/04 09:13:24;;;;;;;;;;;22.60;71.00;;;;;;5017985;28;876;-70
2022/10/04 09:15:55;;;;;;;;;;;22.60;71.10;;;;;;5017170;28;1201;-70
2022/10/04 09:18:22;;;;;;;;;;;22.50;71.10;;;;;;5020476;28;800;-71
2022/10/04 09:20:50;;;;;;;;;;;22.50;71.20;;;;;;5018187;28;844;-71
2022/10/04 09:23:21;;;;;;;;;;;22.50;71.20;;;;;;5017870;28;831;-69
2022/10/04 09:25:56;;;;;;;;;;;22.50;71.20;;;;;;5022973;28;2183;-71
2022/10/04 09:28:33;;;;;;;;;;;22.50;71.20;;;;;;5018367;28;1306;-69
2022/10/04 09:31:02;;;;;;;;;;;22.50;71.20;;;;;;5017704;28;1902;-70
2022/10/04 09:33:45;;;;;;;;;;;22.50;71.30;;;;;;5017491;28;1459;-69
2022/10/04 09:36:23;;;;;;;;;;;22.40;71.20;;;;;;5009486;28;4071;-70
2022/10/04 09:38:48;;;;;;;;;;;22.40;71.20;;;;;;5025941;28;1292;-69
2022/10/04 09:41:33;;;;;;;;;;;22.40;71.40;;;;;;5019227;28;1613;-69
2022/10/04 09:44:02;;;;;;;;;;;22.40;71.40;;;;;;5018585;28;872;-69
2022/10/04 09:46:37;;;;;;;;;;;22.40;71.50;;;;;;5021008;28;1331;-70
2022/10/04 09:49:12;;;;;;;;;;;22.40;71.60;;;;;;5017518;28;813;-69
2022/10/04 09:51:53;;;;;;;;;;;22.30;71.70;;;;;;5016737;28;1021;-70
2022/10/04 09:54:24;;;;;;;;;;;22.30;71.80;;;;;;5018733;28;1429;-70
2022/10/04 09:57:08;;;;;;;;;;;22.30;71.90;;;;;;5019185;28;1273;-71
2022/10/04 09:59:55;;;;;;;;;;;22.30;71.90;;;;;;5019657;28;916;-71
2022/10/04 10:02:39;;;;;;;;;;;22.30;72.20;;;;;;5017728;28;1610;-71
2022/10/04 10:05:07;;;;;;;;;;;22.30;72.10;;;;;;5017492;28;884;-71
2022/10/04 10:07:51;;;;;;;;;;;22.30;72.10;;;;;;5017318;28;1389;-70
2022/10/04 10:16:03;;;;;;;;;;;22.30;72.10;;;;;;5020758;28;1287;-70
2022/10/04 10:18:48;;;;;;;;;;;22.30;72.30;;;;;;5020710;28;1295;-71
2022/10/04 10:21:28;;;;;;;;;;;22.20;72.20;;;;;;5021607;28;1006;-71
2022/10/04 10:24:20;;;;;;;;;;;22.20;72.10;;;;;;5023058;28;1038;-71
2022/10/04 10:26:48;;;;;;;;;;;22.20;72.10;;;;;;5018146;28;1367;-71
2022/10/04 10:29:21;;;;;;;;;;;22.20;72.10;;;;;;5018736;28;1906;-71
2022/10/04 10:31:46;;;;;;;;;;;22.20;72.00;;;;;;5024136;28;1502;-70
2022/10/04 10:34:12;;;;;;;;;;;22.20;72.10;;;;;;5017952;28;856;-72
2022/10/04 10:36:58;;;;;;;;;;;22.20;72.10;;;;;;5022221;28;1398;-71
2022/10/04 10:39:42;;;;;;;;;;;22.20;72.40;;;;;;5019377;28;923;-71
2022/10/04 10:42:26;;;;;;;;;;;22.20;72.40;;;;;;5021803;28;866;-71
2022/10/04 10:45:01;;;;;;;;;;;22.20;72.40;;;;;;5019492;28;933;-71
2022/10/04 10:47:30;;;;;;;;;;;22.20;72.30;;;;;;5020791;28;1363;-71
2022/10/04 10:50:02;;;;;;;;;;;22.20;72.20;;;;;;5021716;28;1909;-69
2022/10/04 10:52:46;;;;;;;;;;;22.20;72.20;;;;;;5021657;28;851;-71
2022/10/04 10:55:45;;;;;;;;;;;22.10;72.10;;;;;;5020036;28;987;-71
2022/10/04 10:58:29;;;;;;;;;;;22.10;72.20;;;;;;5004891;28;1319;-71
2022/10/04 11:01:12;;;;;;;;;;;22.10;72.10;;;;;;5021237;28;2120;-70
2022/10/04 11:03:50;;;;;;;;;;;22.10;72.30;;;;;;5024797;28;1967;-68
2022/10/04 11:06:24;;;;;;;;;;;22.10;72.40;;;;;;5021161;28;1297;-68
2022/10/04 11:09:05;;;;;;;;;;;22.00;70.00;;;;;;5018990;28;1000;-67
2022/10/04 11:11:42;;;;;;;;;;;22.00;69.30;;;;;;5021328;28;1902;-67
2022/10/04 11:14:21;;;;;;;;;;;22.00;67.90;;;;;;5020179;28;1539;-67
2022/10/04 11:17:00;;;;;;;;;;;21.80;67.00;;;;;;5020110;28;1921;-67
2022/10/04 11:19:32;;;;;;;;;;;21.80;66.90;;;;;;5019958;28;1470;-67
2022/10/04 11:22:15;;;;;;;;;;;21.80;66.40;;;;;;5021329;28;920;-67
2022/10/04 11:24:59;;;;;;;;;;;21.80;66.50;;;;;;5019973;28;864;-67
2022/10/04 11:27:51;;;;;;;;;;;21.70;66.10;;;;;;5022130;28;1221;-67
2022/10/04 11:30:27;;;;;;;;;;;21.70;66.50;;;;;;4986109;28;1894;-67
2022/10/04 11:32:53;;;;;;;;;;;21.60;66.30;;;;;;5019336;28;1409;-68
2022/10/04 11:35:33;;;;;;;;;;;21.60;66.20;;;;;;5022250;28;1900;-68
2022/10/04 11:38:10;;;;;;;;;;;21.60;66.10;;;;;;5020594;28;1345;-67
2022/10/04 11:40:51;;;;;;;;;;;21.60;65.90;;;;;;5020464;28;1032;-67
2022/10/04 11:43:20;;;;;;;;;;;21.50;65.10;;;;;;5021566;28;891;-67
2022/10/04 11:45:54;;;;;;;;;;;21.50;65.30;;;;;;5022417;28;1542;-67
2022/10/04 11:48:22;;;;;;;;;;;21.50;65.30;;;;;;5018136;28;1408;-67
2022/10/04 11:50:51;;;;;;;;;;;21.50;65.90;;;;;;5020277;28;1910;-67
2022/10/04 11:53:32;;;;;;;;;;;21.40;65.90;;;;;;5021806;28;880;-68
2022/10/04 11:56:18;;;;;;;;;;;21.40;65.60;;;;;;5015556;28;1434;-66
2022/10/04 11:59:16;;;;;;;;;;;21.40;65.10;;;;;;5017689;28;1315;-67
2022/10/04 12:01:48;;;;;;;;;;;21.40;65.30;;;;;;4987277;28;1292;-67
2022/10/04 12:04:20;;;;;;;;;;;21.30;65.50;;;;;;5020168;28;975;-68
2022/10/04 12:07:05;;;;;;;;;;;21.30;65.50;;;;;;5018269;28;1423;-67
2022/10/04 12:09:38;;;;;;;;;;;21.30;65.50;;;;;;5018395;28;1910;-67
2022/10/04 12:12:38;;;;;;;;;;;21.30;64.80;;;;;;5015526;28;890;-67
2022/10/04 12:15:09;;;;;;;;;;;21.30;64.80;;;;;;5018480;28;827;-67
2022/10/04 12:17:35;;;;;;;;;;;21.30;64.60;;;;;;5019478;28;1297;-67
2022/10/04 12:20:15;;;;;;;;;;;21.30;65.00;;;;;;5017927;28;1467;-66
2022/10/04 12:22:41;;;;;;;;;;;21.20;64.60;;;;;;5017656;28;1201;-70
2022/10/04 12:25:25;;;;;;;;;;;21.20;64.70;;;;;;5022083;28;1506;-68
2022/10/04 12:27:51;;;;;;;;;;;21.20;64.70;;;;;;5013616;28;1278;-67
2022/10/04 12:30:19;;;;;;;;;;;21.20;64.60;;;;;;5018032;28;1898;-67
2022/10/04 12:33:08;;;;;;;;;;;21.20;64.60;;;;;;5017049;28;1453;-68
2022/10/04 12:35:52;;;;;;;;;;;21.20;64.80;;;;;;5014037;28;1413;-67
2022/10/04 12:38:19;;;;;;;;;;;21.20;64.90;;;;;;5019651;28;1881;-68
2022/10/04 12:40:45;;;;;;;;;;;21.10;65.00;;;;;;5025868;28;1501;-68
2022/10/04 12:43:16;;;;;;;;;;;21.10;64.90;;;;;;5018442;28;1398;-68
2022/10/04 12:45:42;;;;;;;;;;;21.10;64.90;;;;;;5023035;28;1592;-68
2022/10/04 12:48:19;;;;;;;;;;;21.10;64.70;;;;;;5018541;28;1412;-68
2022/10/04 12:51:04;;;;;;;;;;;21.10;64.70;;;;;;5018019;28;1975;-68
2022/10/04 12:53:34;;;;;;;;;;;21.10;64.60;;;;;;5018791;28;1185;-69
2022/10/04 12:56:04;;;;;;;;;;;21.10;64.00;;;;;;5020465;28;1280;-68
2022/10/04 12:58:49;;;;;;;;;;;21.10;64.10;;;;;;5018982;28;1244;-69
2022/10/04 13:01:29;;;;;;;;;;;21.10;64.50;;;;;;5018871;28;1285;-68
2022/10/04 13:04:07;;;;;;;;;;;21.10;64.50;;;;;;5017217;28;1628;-70
2022/10/04 13:06:42;;;;;;;;;;;21.10;64.30;;;;;;5021069;28;1390;-68
2022/10/04 13:09:08;;;;;;;;;;;21.10;64.10;;;;;;5018335;28;1429;-68
2022/10/04 13:11:50;;;;;;;;;;;21.00;63.90;;;;;;5022925;28;1977;-70
2022/10/04 13:14:38;;;;;;;;;;;21.00;63.90;;;;;;5024699;28;1037;-70
2022/10/04 13:17:09;;;;;;;;;;;21.00;63.80;;;;;;5017492;28;1271;-70
2022/10/04 13:19:38;;;;;;;;;;;21.00;64.00;;;;;;5021308;28;1259;-72
2022/10/04 13:22:22;;;;;;;;;;;21.00;64.00;;;;;;5021574;28;1456;-71
2022/10/04 13:24:53;;;;;;;;;;;21.00;63.90;;;;;;5019979;28;1414;-68
2022/10/04 13:27:39;;;;;;;;;;;20.90;63.90;;;;;;5023665;28;1305;-69
2022/10/04 13:30:15;;;;;;;;;;;21.00;64.10;;;;;;5024708;28;1961;-69
2022/10/04 13:32:43;;;;;;;;;;;21.00;64.10;;;;;;5024668;28;1307;-71
2022/10/04 13:35:13;;;;;;;;;;;20.90;63.90;;;;;;5007774;28;1270;-70
2022/10/04 13:37:43;;;;;;;;;;;21.00;63.80;;;;;;5022572;28;1328;-69
2022/10/04 13:40:21;;;;;;;;;;;20.90;63.60;;;;;;5021863;28;860;-69
2022/10/04 13:42:58;;;;;;;;;;;20.90;63.30;;;;;;5025659;28;1211;-69
2022/10/04 13:45:30;;;;;;;;;;;20.90;63.60;;;;;;5021063;28;831;-69
2022/10/04 13:48:16;;;;;;;;;;;20.90;63.70;;;;;;5021130;28;1366;-69
2022/10/04 13:50:56;;;;;;;;;;;20.90;63.70;;;;;;5023397;28;1874;-69
2022/10/04 13:56:36;;;;;;;;;;;20.90;63.60;;;;;;5022097;28;1312;-70
2022/10/04 13:59:08;;;;;;;;;;;20.90;63.60;;;;;;5023612;28;863;-70
2022/10/04 14:01:45;;;;;;;;;;;20.90;63.60;;;;;;5025985;28;899;-69
2022/10/04 14:04:32;;;;;;;;;;;20.90;63.60;;;;;;5019103;28;876;-71
2022/10/04 14:07:12;;;;;;;;;;;20.90;64.00;;;;;;5022126;28;1277;-72
2022/10/04 14:09:52;;;;;;;;;;;20.90;63.40;;;;;;5022549;28;1969;-72
2022/10/04 14:12:24;;;;;;;;;;;20.90;63.40;;;;;;5024358;28;859;-73
2022/10/04 14:14:51;;;;;;;;;;;20.90;63.50;;;;;;5020942;28;829;-73
2022/10/04 14:17:27;;;;;;;;;;;20.90;63.70;;;;;;5026844;28;1256;-70
2022/10/04 14:20:07;;;;;;;;;;;20.90;64.00;;;;;;5021677;28;883;-71
2022/10/04 14:22:35;;;;;;;;;;;20.80;64.10;;;;;;5021383;28;887;-71
2022/10/04 14:25:08;;;;;;;;;;;20.90;64.30;;;;;;5020625;28;844;-73
2022/10/04 14:27:53;;;;;;;;;;;20.90;64.40;;;;;;5021748;28;1305;-72
2022/10/04 14:30:25;;;;;;;;;;;20.90;64.60;;;;;;5019795;28;1940;-72
2022/10/04 14:33:14;;;;;;;;;;;20.90;64.80;;;;;;5020642;28;1456;-73
2022/10/04 14:35:43;;;;;;;;;;;20.90;64.90;;;;;;5023621;28;883;-71
2022/10/04 14:38:15;;;;;;;;;;;20.80;65.00;;;;;;5021629;28;1529;-71
2022/10/04 14:40:59;;;;;;;;;;;20.90;65.90;;;;;;5020186;28;994;-71
2022/10/04 14:43:43;;;;;;;;;;;20.90;65.30;;;;;;5021648;28;884;-71
2022/10/04 14:46:08;;;;;;;;;;;20.90;65.30;;;;;;5020842;28;1692;-73
2022/10/04 14:48:41;;;;;;;;;;;20.90;65.50;;;;;;5020332;28;1006;-70
2022/10/04 14:51:13;;;;;;;;;;;20.90;65.50;;;;;;5022482;28;1902;-70
2022/10/04 14:53:41;;;;;;;;;;;20.90;65.60;;;;;;5020790;28;931;-70
2022/10/04 14:56:25;;;;;;;;;;;20.90;65.70;;;;;;5024229;28;1296;-71
2022/10/04 14:59:09;;;;;;;;;;;20.80;65.70;;;;;;5028008;28;1269;-70
2022/10/04 15:01:35;;;;;;;;;;;20.90;65.90;;;;;;5024819;28;875;-70
2022/10/04 15:04:12;;;;;;;;;;;20.90;66.00;;;;;;5024730;28;844;-70
2022/10/04 15:06:53;;;;;;;;;;;20.90;66.00;;;;;;5025091;28;1430;-71
2022/10/04 15:09:18;;;;;;;;;;;20.90;66.10;;;;;;5025262;28;947;-70
2022/10/04 15:11:52;;;;;;;;;;;20.90;66.20;;;;;;5020370;28;1898;-71
2022/10/04 15:14:36;;;;;;;;;;;20.90;66.30;;;;;;5022808;28;867;-72
2022/10/04 15:17:22;;;;;;;;;;;20.80;66.20;;;;;;5021172;28;1250;-72
2022/10/04 15:19:53;;;;;;;;;;;20.90;66.40;;;;;;5026310;28;1200;-71
2022/10/04 15:22:26;;;;;;;;;;;20.90;66.40;;;;;;5021651;28;789;-72
2022/10/04 15:24:51;;;;;;;;;;;20.80;66.40;;;;;;5021142;28;828;-71